Wichita, KS (67203)

5:25 PM CDT on July 24, 2016 (GMT -0500)
Indian Hills | | Change Station
Active Advisory: Excessive Heat Warning

Elev 1329 ft 37.72 °N, 97.37 °W | Updated 14 minutes ago

Mostly Cloudy
Mostly Cloudy
101.8 °F
Feels Like 118 °F
N
1.7
Wind Variable Wind from East

Today
High -- | Low -- °F
--% Chance of Precip.
Yesterday
High -- | Low -- °F
Precip. -- in
Pressure 29.85 in
Visibility 10.0 miles
Clouds Few 6000 ft
Scattered Clouds 8000 ft
Scattered Clouds 11000 ft
Mostly Cloudy 15000 ft
Mostly Cloudy 18000 ft
Heat Index 118 °F
Dew Point 76 °F
Humidity 45%
Rainfall 0.00 in
Snow Depth Not available.
6:27 AM 8:44 PM
Waning Gibbous, 72% visible
METAR KICT 242153Z 12007KT 10SM FEW060 SCT080 SCT110 BKN150 BKN180 36/21 A2990 RMK AO2 SLP106 T03610206
Pressure 29.85 in
Visibility 10.0 miles
Clouds Few 6000 ft
Scattered Clouds 8000 ft
Scattered Clouds 11000 ft
Mostly Cloudy 15000 ft
Mostly Cloudy 18000 ft
Heat Index 118 °F
Dew Point 76 °F
Humidity 45%
Rainfall 0.00 in
Snow Depth Not available.
6:27 AM 8:44 PM
Waning Gibbous, 72% visible
METAR KICT 242153Z 12007KT 10SM FEW060 SCT080 SCT110 BKN150 BKN180 36/21 A2990 RMK AO2 SLP106 T03610206

10-Day Weather Forecast

Almanac

Astronomy

Jul. 24, 2016 Rise Set
Actual Time
Civil Twilight
Nautical Twilight
Astronomical Twilight
Moon
Length of Visible Light
Length of Day
Tomorrow will be .
, % of the Moon is Illuminated

Today's Extremes

State Highs State Lows

Community

WunderPhotos

Upload Photos

1,927,203 photos uploaded!

WunderBlog® & News

Nearby

Air Quality

  Air Quality AQ Index Pollutant
Not available.

Snow Depth

Station Depth Elevation

Earthquake Activity

City Distance Mag. Time & Date
Minimum magnitude displayed is 2.5.

Coastal Water Temperatures

Place Temperature

Stations

Nearby Weather Stations

Station Location Temp. Windchill Dew Point Humidity Wind Precip. Elev Updated Type
                   

Watches & Warnings

Excessive Heat Warning
Issued: 4:30 PM CDT Jul. 24, 2016 – National Weather Service

... Excessive heat warning remains in effect until 8 PM CDT this
evening...

* heat index values... up to 108.

* Timing... through early this evening.

* Impacts... the heat and humidity will make heat related illness
such as heat stress... heat cramps... and possibly heat stroke
more likely.

Precautionary/preparedness actions...

An excessive heat warning means that a prolonged period of
dangerously hot temperatures will occur. The combination of hot
temperatures and high humidity will create a dangerous situation
where heat illnesses are likely. Drink plenty of fluids and stay
in an air conditioned room. Stay out of the sun and check up on
relatives and neighbors. Temperatures within vehicles can become
lethal in a few minutes. Never leave children or pets in
vehicles. Remember to beat the heat... check the backseat.